Time;durP1;ratioP1;P1;durP2;ratioP2;P2;SDS_P1;SDS_P2;PMS_P1;PMS_P2;Temp;Humidity;BMP_temperature;BMP_pressure;BME280_temperature;BME280_humidity;BME280_pressure;Samples;Min_cycle;Max_cycle;Signal;HPM_P1;HPM_P2
2023/09/21 00:01:10;;;;;;;3.67;0.63;;;29.30;28.90;;;;;;5050456;28;20030;-70
2023/09/21 00:03:41;;;;;;;3.45;0.65;;;29.40;29.00;;;;;;5055834;28;20059;-69
2023/09/21 00:06:09;;;;;;;1.98;0.60;;;29.10;29.20;;;;;;5051777;28;20060;-69
2023/09/21 00:08:36;;;;;;;6.45;0.60;;;29.40;28.40;;;;;;5055636;28;20698;-70
2023/09/21 00:11:07;;;;;;;3.92;0.73;;;29.30;28.00;;;;;;5061140;28;20040;-70
2023/09/21 00:13:39;;;;;;;2.75;0.52;;;29.10;28.00;;;;;;5056047;28;20055;-69
2023/09/21 00:16:14;;;;;;;2.70;0.75;;;29.40;28.60;;;;;;5048244;28;20029;-69
2023/09/21 00:18:42;;;;;;;2.92;0.65;;;29.50;28.10;;;;;;5054363;28;20037;-69
2023/09/21 00:21:12;;;;;;;2.42;0.70;;;29.70;28.30;;;;;;5048801;28;20063;-70
2023/09/21 00:23:40;;;;;;;2.38;0.40;;;29.50;28.10;;;;;;5048009;28;20060;-70
2023/09/21 00:26:09;;;;;;;1.58;0.43;;;29.30;27.10;;;;;;5044603;28;20029;-70
2023/09/21 00:28:36;;;;;;;5.07;0.80;;;29.20;26.80;;;;;;5043719;28;20025;-67
2023/09/21 00:31:04;;;;;;;2.20;0.40;;;29.00;26.20;;;;;;5050682;28;20047;-68
2023/09/21 00:33:34;;;;;;;2.65;0.40;;;28.90;26.80;;;;;;5051963;28;20041;-67
2023/09/21 00:36:04;;;;;;;2.30;0.60;;;28.90;27.50;;;;;;5050191;28;20074;-68
2023/09/21 00:38:31;;;;;;;3.63;0.50;;;29.30;27.50;;;;;;5051375;28;20025;-68
2023/09/21 00:41:00;;;;;;;4.28;0.60;;;29.60;26.60;;;;;;5047771;28;20033;-69
2023/09/21 00:43:28;;;;;;;2.70;0.40;;;29.70;26.40;;;;;;5051782;28;20044;-69
2023/09/21 00:46:00;;;;;;;4.60;0.60;;;29.40;26.70;;;;;;5057290;28;20024;-70
2023/09/21 00:48:36;;;;;;;2.13;0.40;;;29.70;26.40;;;;;;5056810;28;20390;-68
2023/09/21 00:51:08;;;;;;;0.40;0.20;;;29.40;25.90;;;;;;5060877;28;20044;-71
2023/09/21 00:53:36;;;;;;;1.95;0.43;;;29.10;26.30;;;;;;5051577;28;20032;-68
2023/09/21 00:56:11;;;;;;;2.63;0.30;;;29.20;27.10;;;;;;5054121;28;20534;-69
2023/09/21 00:58:45;;;;;;;3.50;0.75;;;29.40;27.00;;;;;;5057112;28;20066;-69
2023/09/21 01:01:22;;;;;;;1.13;0.30;;;29.70;26.40;;;;;;5053839;28;20039;-70
2023/09/21 01:03:53;;;;;;;4.15;0.80;;;30.00;27.40;;;;;;5049817;28;20040;-70
2023/09/21 01:06:20;;;;;;;0.93;0.40;;;30.20;26.70;;;;;;5051513;28;20090;-69
2023/09/21 01:08:48;;;;;;;3.53;0.73;;;30.50;25.90;;;;;;5055856;28;20033;-69
2023/09/21 01:11:16;;;;;;;1.90;0.50;;;30.50;26.30;;;;;;5053078;28;20119;-69
2023/09/21 01:13:44;;;;;;;2.03;0.70;;;30.30;25.90;;;;;;5053419;28;20115;-69
2023/09/21 01:16:11;;;;;;;1.38;0.40;;;29.90;25.80;;;;;;5052931;28;20029;-69
2023/09/21 01:18:42;;;;;;;1.77;0.45;;;29.90;25.90;;;;;;5050797;28;20024;-70
2023/09/21 01:21:12;;;;;;;1.58;0.57;;;29.80;25.40;;;;;;5055977;28;20035;-70
2023/09/21 01:23:49;;;;;;;2.85;0.73;;;29.80;26.30;;;;;;4947941;28;2847883;-72
2023/09/21 01:26:16;;;;;;;;;;;29.80;26.70;;;;;;5055447;28;20025;-70
2023/09/21 01:28:48;;;;;;;1.20;0.50;;;30.10;26.90;;;;;;5058578;28;19912;-70
2023/09/21 01:31:16;;;;;;;2.63;0.40;;;30.30;26.80;;;;;;5055351;28;20063;-70
2023/09/21 01:33:44;;;;;;;2.03;0.50;;;30.40;25.60;;;;;;5050225;28;20707;-71
2023/09/21 01:36:12;;;;;;;1.45;0.30;;;30.00;25.70;;;;;;5055226;28;20799;-70
2023/09/21 01:38:44;;;;;;;1.13;0.40;;;30.00;26.30;;;;;;5054154;28;20025;-72
2023/09/21 01:41:18;;;;;;;2.88;0.60;;;30.10;26.60;;;;;;5050877;28;20025;-71
2023/09/21 01:43:46;;;;;;;0.68;0.30;;;30.50;26.40;;;;;;5053768;28;20043;-70
2023/09/21 01:46:18;;;;;;;2.60;0.52;;;30.30;26.30;;;;;;5051347;28;20474;-71
2023/09/21 01:48:46;;;;;;;1.63;0.40;;;30.40;26.20;;;;;;5053692;28;20024;-71
2023/09/21 01:51:13;;;;;;;0.98;0.20;;;30.50;25.90;;;;;;5057938;28;20081;-70
2023/09/21 01:53:44;;;;;;;2.15;0.47;;;30.50;25.60;;;;;;5053068;28;20417;-69
2023/09/21 01:56:11;;;;;;;1.48;0.60;;;30.50;26.20;;;;;;5049598;28;20029;-70
2023/09/21 01:58:39;;;;;;;1.65;0.40;;;30.60;25.60;;;;;;5045130;28;20465;-69
2023/09/21 02:01:06;;;;;;;1.98;0.40;;;30.50;26.00;;;;;;5048195;28;20029;-70
2023/09/21 02:03:34;;;;;;;0.95;0.40;;;30.60;25.90;;;;;;5055322;28;20497;-69
2023/09/21 02:06:02;;;;;;;0.88;0.40;;;30.70;26.00;;;;;;5047033;28;20074;-69
2023/09/21 02:08:33;;;;;;;2.45;0.70;;;30.80;25.80;;;;;;5047260;28;20031;-70
2023/09/21 02:11:00;;;;;;;0.50;0.30;;;30.70;25.70;;;;;;5049259;28;20441;-70
2023/09/21 02:13:28;;;;;;;1.90;0.38;;;30.90;25.60;;;;;;5051933;28;20020;-68
2023/09/21 02:15:55;;;;;;;1.30;0.50;;;31.00;24.50;;;;;;5046706;28;20423;-69
2023/09/21 02:18:22;;;;;;;1.40;0.50;;;30.80;26.10;;;;;;5054567;28;20361;-68
2023/09/21 02:20:50;;;;;;;1.00;0.40;;;31.10;26.90;;;;;;5045842;28;20123;-69
2023/09/21 02:23:17;;;;;;;1.00;0.43;;;31.10;25.00;;;;;;5049457;28;20055;-68
2023/09/21 02:25:45;;;;;;;0.80;0.32;;;31.00;26.10;;;;;;5052194;28;20523;-69
2023/09/21 02:28:12;;;;;;;1.83;0.40;;;31.30;26.70;;;;;;5056431;28;20035;-69
2023/09/21 02:30:51;;;;;;;9.98;0.70;;;31.30;26.50;;;;;;5052484;28;20033;-70
2023/09/21 02:33:19;;;;;;;2.30;0.40;;;31.30;25.00;;;;;;5050274;28;20025;-69
2023/09/21 02:35:47;;;;;;;3.28;0.70;;;31.10;25.70;;;;;;5048824;28;20230;-70
2023/09/21 02:38:16;;;;;;;1.50;0.50;;;31.10;25.20;;;;;;5053281;28;20135;-69
2023/09/21 02:40:45;;;;;;;1.00;0.40;;;31.40;25.60;;;;;;5048212;28;20024;-69
2023/09/21 02:43:13;;;;;;;1.85;0.22;;;31.70;25.60;;;;;;5052573;28;20043;-69
2023/09/21 02:45:40;;;;;;;1.50;0.32;;;31.60;25.80;;;;;;5058052;28;20028;-69
2023/09/21 02:48:08;;;;;;;1.98;0.50;;;31.60;25.50;;;;;;5055830;28;20029;-68
2023/09/21 02:50:35;;;;;;;1.48;0.45;;;31.90;26.20;;;;;;5052709;28;20029;-68
2023/09/21 02:53:10;;;;;;;2.97;0.93;;;32.10;25.50;;;;;;5058213;28;20118;-67
2023/09/21 02:55:39;;;;;;;1.63;0.55;;;32.00;25.40;;;;;;5052307;28;20036;-69
2023/09/21 02:58:12;;;;;;;0.77;0.30;;;32.00;25.30;;;;;;5051650;28;20475;-70
2023/09/21 03:00:42;;;;;;;0.60;0.40;;;32.00;24.70;;;;;;5049868;28;20026;-70
2023/09/21 03:03:17;;;;;;;1.58;0.40;;;31.50;25.50;;;;;;5054933;28;20048;-69
2023/09/21 03:05:49;;;;;;;1.27;0.10;;;31.60;26.30;;;;;;5055677;28;20037;-70
2023/09/21 03:08:18;;;;;;;0.63;0.20;;;31.70;25.10;;;;;;5058320;28;20373;-69
2023/09/21 03:10:47;;;;;;;2.70;0.30;;;31.80;25.30;;;;;;5053453;28;20029;-69
2023/09/21 03:13:19;;;;;;;0.93;0.20;;;31.70;25.30;;;;;;5049776;28;20112;-69
2023/09/21 03:15:50;;;;;;;0.82;0.20;;;31.70;25.30;;;;;;5052791;28;20420;-70
2023/09/21 03:18:20;;;;;;;0.63;0.10;;;31.70;25.00;;;;;;5057247;28;20067;-70
2023/09/21 03:20:52;;;;;;;1.05;0.30;;;31.90;25.40;;;;;;5055290;28;20018;-70
2023/09/21 03:23:20;;;;;;;8.73;1.35;;;32.20;24.80;;;;;;5051015;28;20363;-70
2023/09/21 03:25:50;;;;;;;12.23;2.03;;;32.00;33.20;;;;;;5065567;28;20056;-69
2023/09/21 03:28:19;;;;;;;8.00;1.60;;;31.10;38.10;;;;;;5061097;28;20063;-69
2023/09/21 03:30:48;;;;;;;12.57;2.45;;;30.30;39.90;;;;;;5053259;28;20039;-69
2023/09/21 03:33:18;;;;;;;8.35;1.77;;;29.40;41.40;;;;;;5053407;28;20035;-69
2023/09/21 03:35:45;;;;;;;8.23;1.42;;;28.30;43.20;;;;;;5050004;28;20032;-69
2023/09/21 03:38:13;;;;;;;7.25;1.70;;;28.00;43.20;;;;;;5051391;28;20024;-69
2023/09/21 03:40:42;;;;;;;9.82;1.65;;;27.90;42.70;;;;;;5050677;28;20059;-68
2023/09/21 03:43:10;;;;;;;7.95;1.85;;;27.70;42.70;;;;;;5048474;28;20044;-70
2023/09/21 03:45:42;;;;;;;8.48;1.60;;;27.20;43.30;;;;;;5059669;28;20074;-69
2023/09/21 03:48:10;;;;;;;10.45;1.60;;;27.00;43.70;;;;;;5047891;28;20083;-68
2023/09/21 03:50:40;;;;;;;12.55;1.58;;;27.20;43.90;;;;;;5055810;28;20032;-68
2023/09/21 03:53:10;;;;;;;6.22;1.10;;;27.30;44.10;;;;;;5053779;28;20478;-69
2023/09/21 03:55:40;;;;;;;8.73;1.23;;;27.30;44.50;;;;;;5052330;28;20076;-69
2023/09/21 03:58:07;;;;;;;11.68;2.33;;;26.90;44.40;;;;;;5049490;28;20036;-69
2023/09/21 04:03:06;;;;;;;7.53;1.38;;;26.50;45.20;;;;;;5055667;28;20475;-70
2023/09/21 04:05:35;;;;;;;10.07;1.92;;;26.50;44.30;;;;;;5056864;28;20036;-69
2023/09/21 04:08:06;;;;;;;5.93;1.25;;;26.70;44.00;;;;;;5059649;28;20063;-71
2023/09/21 04:10:35;;;;;;;10.20;1.75;;;26.50;44.60;;;;;;5054900;28;20033;-68
2023/09/21 04:13:03;;;;;;;6.05;1.20;;;26.50;44.70;;;;;;5052132;28;20534;-68
2023/09/21 04:15:31;;;;;;;6.05;1.20;;;26.40;45.20;;;;;;5051426;28;20377;-69
2023/09/21 04:17:59;;;;;;;8.70;1.70;;;26.50;44.40;;;;;;5055826;28;20087;-69
2023/09/21 04:20:30;;;;;;;12.88;1.88;;;26.60;44.10;;;;;;5054054;28;20079;-69
2023/09/21 04:23:00;;;;;;;11.13;1.60;;;26.50;44.30;;;;;;5058524;28;20056;-69
2023/09/21 04:25:27;;;;;;;4.97;1.45;;;26.40;45.10;;;;;;5062854;28;20025;-69
2023/09/21 04:27:55;;;;;;;6.38;1.60;;;26.40;45.70;;;;;;5064909;28;20382;-70
2023/09/21 04:30:23;;;;;;;10.15;1.85;;;26.00;46.10;;;;;;5058478;28;20029;-69
2023/09/21 04:32:51;;;;;;;11.15;1.63;;;25.90;45.50;;;;;;5058003;28;20087;-68
2023/09/21 04:35:20;;;;;;;12.27;1.88;;;25.80;46.30;;;;;;5057010;28;20143;-69
2023/09/21 04:37:51;;;;;;;9.13;1.38;;;25.60;47.30;;;;;;5059236;28;20025;-67
2023/09/21 04:40:18;;;;;;;9.25;1.50;;;25.40;47.60;;;;;;5056481;28;20029;-69
2023/09/21 04:42:47;;;;;;;7.93;1.90;;;25.40;47.40;;;;;;5060582;28;20040;-68
2023/09/21 04:45:18;;;;;;;13.50;1.92;;;25.30;56.50;;;;;;5055892;28;20047;-70
2023/09/21 04:47:49;;;;;;;15.60;2.20;;;25.10;47.90;;;;;;5059513;28;20027;-69
2023/09/21 04:50:18;;;;;;;9.88;1.42;;;25.00;48.10;;;;;;5054908;28;20075;-69
2023/09/21 04:52:48;;;;;;;10.90;1.98;;;24.60;49.80;;;;;;5059591;28;20412;-69
2023/09/21 04:55:18;;;;;;;10.68;1.80;;;24.40;49.20;;;;;;5058939;28;20071;-69
2023/09/21 04:57:46;;;;;;;11.85;1.65;;;24.50;49.20;;;;;;5055918;28;20491;-69
2023/09/21 05:00:15;;;;;;;8.00;1.30;;;24.70;61.40;;;;;;5056120;28;20111;-69
2023/09/21 05:02:43;;;;;;;10.65;2.40;;;24.30;50.20;;;;;;5062001;28;20351;-69
2023/09/21 05:05:10;;;;;;;7.40;1.55;;;24.20;50.70;;;;;;5047457;28;20064;-69
2023/09/21 05:07:38;;;;;;;9.52;1.67;;;24.10;50.30;;;;;;5052016;28;20029;-69
2023/09/21 05:10:07;;;;;;;15.95;1.73;;;23.80;51.40;;;;;;5056847;28;20033;-70
2023/09/21 05:12:34;;;;;;;9.43;1.67;;;23.80;52.40;;;;;;5060480;28;20366;-69
2023/09/21 05:15:06;;;;;;;11.05;1.83;;;23.90;51.10;;;;;;5056086;28;20484;-68
2023/09/21 05:17:36;;;;;;;16.05;2.15;;;23.70;52.20;;;;;;5061082;28;20017;-69
2023/09/21 05:20:11;;;;;;;8.60;1.50;;;23.80;51.90;;;;;;5058088;28;20677;-68
2023/09/21 05:22:40;;;;;;;8.40;2.15;;;23.80;52.10;;;;;;5055345;28;20053;-70
2023/09/21 05:25:09;;;;;;;9.27;1.50;;;23.30;52.50;;;;;;5055824;28;20035;-69
2023/09/21 05:27:43;;;;;;;7.60;1.73;;;23.20;53.20;;;;;;5059882;28;20083;-69
2023/09/21 05:30:10;;;;;;;9.70;1.70;;;23.40;52.70;;;;;;5061481;28;20032;-68
2023/09/21 05:32:38;;;;;;;8.90;1.50;;;23.40;52.80;;;;;;5066589;28;20020;-70
2023/09/21 05:35:07;;;;;;;12.05;1.77;;;23.40;53.20;;;;;;5051573;28;20477;-69
2023/09/21 05:37:38;;;;;;;10.07;1.50;;;23.30;52.80;;;;;;5051521;28;20029;-68
2023/09/21 05:40:11;;;;;;;9.95;1.35;;;22.90;54.40;;;;;;5059408;28;20052;-69
2023/09/21 05:42:39;;;;;;;13.30;1.80;;;22.90;53.90;;;;;;5054260;28;20057;-70
2023/09/21 05:45:07;;;;;;;13.77;1.58;;;22.70;54.20;;;;;;5048101;28;20037;-70
2023/09/21 05:47:34;;;;;;;13.73;1.63;;;22.50;55.50;;;;;;5065386;28;20025;-69
2023/09/21 05:50:03;;;;;;;9.90;1.80;;;22.40;55.50;;;;;;5063679;28;20458;-68
2023/09/21 05:52:32;;;;;;;11.52;1.55;;;22.20;55.60;;;;;;5062503;28;20055;-69
2023/09/21 05:55:00;;;;;;;9.18;1.25;;;22.30;55.00;;;;;;5056480;28;20021;-69
2023/09/21 05:57:28;;;;;;;14.35;1.80;;;22.20;55.80;;;;;;5051519;28;20037;-69
2023/09/21 05:59:55;;;;;;;13.27;1.67;;;22.00;55.50;;;;;;5054982;28;20082;-68
2023/09/21 06:02:23;;;;;;;9.75;1.77;;;21.60;56.90;;;;;;5044280;28;20032;-68
2023/09/21 06:04:51;;;;;;;8.80;1.70;;;21.10;57.80;;;;;;5052841;28;20090;-68
2023/09/21 06:07:18;;;;;;;9.52;1.80;;;21.10;67.30;;;;;;5052008;28;20029;-69
2023/09/21 06:09:46;;;;;;;9.77;1.50;;;20.90;58.60;;;;;;5055578;28;20028;-69
2023/09/21 06:12:13;;;;;;;10.65;1.77;;;20.90;59.10;;;;;;5054667;28;20025;-69
2023/09/21 06:14:41;;;;;;;7.75;1.67;;;20.90;59.20;;;;;;5057838;28;20111;-69
2023/09/21 06:17:13;;;;;;;12.48;1.40;;;20.70;59.60;;;;;;5062756;28;20025;-69
2023/09/21 06:19:41;;;;;;;9.15;1.42;;;20.50;60.60;;;;;;5054607;28;20074;-69
2023/09/21 06:22:08;;;;;;;13.45;1.52;;;20.50;60.40;;;;;;5057299;28;20059;-69
2023/09/21 06:24:37;;;;;;;11.05;1.27;;;20.30;60.70;;;;;;5057183;28;20036;-70
2023/09/21 06:27:05;;;;;;;14.68;1.52;;;20.10;61.20;;;;;;5056959;28;20539;-70
2023/09/21 06:29:32;;;;;;;15.80;1.65;;;20.00;61.40;;;;;;5058384;28;20103;-69
2023/09/21 06:32:00;;;;;;;12.23;1.88;;;19.90;61.90;;;;;;5053309;28;20072;-69
2023/09/21 06:34:29;;;;;;;9.48;1.42;;;19.90;61.60;;;;;;5054262;28;20075;-69
2023/09/21 06:36:57;;;;;;;10.07;1.42;;;19.90;61.20;;;;;;5054367;28;20028;-70
2023/09/21 06:39:28;;;;;;;13.82;1.65;;;19.70;61.30;;;;;;5052503;28;20033;-68
2023/09/21 06:41:55;;;;;;;9.70;1.63;;;19.70;61.90;;;;;;5058352;28;20367;-73
2023/09/21 06:44:23;;;;;;;12.05;1.73;;;19.70;61.60;;;;;;5059495;28;20032;-70
2023/09/21 06:46:51;;;;;;;12.07;1.92;;;19.60;62.10;;;;;;5059882;28;20486;-68
2023/09/21 06:49:19;;;;;;;9.00;1.83;;;19.60;61.80;;;;;;5052519;28;20363;-69
2023/09/21 06:51:47;;;;;;;19.40;2.42;;;19.60;61.80;;;;;;5054733;28;20036;-70
2023/09/21 06:54:14;;;;;;;12.57;1.52;;;19.50;61.90;;;;;;5049594;28;20033;-70
2023/09/21 06:56:41;;;;;;;12.77;1.95;;;19.40;61.70;;;;;;5055405;28;20029;-69
2023/09/21 06:59:09;;;;;;;7.03;2.05;;;19.30;61.90;;;;;;5058593;28;20020;-69
2023/09/21 07:01:36;;;;;;;11.65;2.10;;;19.10;62.40;;;;;;5058906;28;20059;-69
2023/09/21 07:04:04;;;;;;;12.15;2.30;;;18.90;62.90;;;;;;5057464;28;20037;-70
2023/09/21 07:06:31;;;;;;;16.08;2.35;;;18.70;63.90;;;;;;5052256;28;20035;-69
2023/09/21 07:09:00;;;;;;;11.80;2.40;;;18.60;64.80;;;;;;5051089;28;20116;-71
2023/09/21 07:11:28;;;;;;;11.95;1.95;;;18.40;65.30;;;;;;5049659;28;20079;-69
2023/09/21 07:13:56;;;;;;;9.73;1.63;;;18.20;65.10;;;;;;5054665;28;20033;-68
2023/09/21 07:16:24;;;;;;;8.82;1.77;;;18.00;65.30;;;;;;5049760;28;20116;-72
2023/09/21 07:18:53;;;;;;;11.70;2.17;;;17.80;64.90;;;;;;5046342;28;20025;-69
2023/09/21 07:21:21;;;;;;;9.88;1.92;;;17.80;65.10;;;;;;5047974;28;20040;-68
2023/09/21 07:23:50;;;;;;;14.32;2.70;;;17.70;65.50;;;;;;5045993;28;20494;-70
2023/09/21 07:26:19;;;;;;;7.50;1.55;;;17.70;65.70;;;;;;5048360;28;20207;-69
2023/09/21 07:28:47;;;;;;;9.88;2.10;;;17.80;66.10;;;;;;5045054;28;20025;-68
2023/09/21 07:31:15;;;;;;;11.02;2.35;;;17.90;66.20;;;;;;5047375;28;20036;-68
2023/09/21 07:33:42;;;;;;;10.45;1.92;;;17.90;66.20;;;;;;5049116;28;20044;-67
2023/09/21 07:36:11;;;;;;;8.82;1.45;;;17.90;66.70;;;;;;5048748;28;20040;-69
2023/09/21 07:38:38;;;;;;;14.63;1.98;;;18.00;66.40;;;;;;5046691;28;20123;-69
2023/09/21 07:41:07;;;;;;;11.50;1.52;;;18.20;66.40;;;;;;5043618;28;20382;-69
2023/09/21 07:43:36;;;;;;;12.90;1.63;;;18.20;65.70;;;;;;5040692;28;20033;-70
2023/09/21 07:46:03;;;;;;;12.93;1.67;;;18.20;66.10;;;;;;5039843;28;20031;-69
2023/09/21 07:48:31;;;;;;;6.82;1.70;;;18.10;66.10;;;;;;5052078;28;20028;-69
2023/09/21 07:51:03;;;;;;;13.95;1.98;;;18.00;66.60;;;;;;5055571;28;20537;-67
2023/09/21 07:53:31;;;;;;;9.68;2.40;;;17.90;66.60;;;;;;5056698;28;20389;-68
2023/09/21 07:56:08;;;;;;;10.57;1.83;;;17.80;66.90;;;;;;5050943;28;20033;-68
2023/09/21 07:58:35;;;;;;;16.42;2.35;;;17.80;66.90;;;;;;5055822;28;20024;-68
2023/09/21 08:01:02;;;;;;;10.20;1.80;;;17.80;67.20;;;;;;5050543;28;20067;-67
2023/09/21 08:03:31;;;;;;;9.10;1.95;;;17.90;66.30;;;;;;5052134;28;20476;-68
2023/09/21 08:06:01;;;;;;;9.43;2.30;;;17.90;64.30;;;;;;5058145;28;20544;-68
2023/09/21 08:08:28;;;;;;;13.40;1.75;;;17.70;64.10;;;;;;5053729;28;20028;-68
2023/09/21 08:10:56;;;;;;;14.75;1.83;;;17.50;64.50;;;;;;5056497;28;20029;-69
2023/09/21 08:13:26;;;;;;;8.80;1.20;;;17.50;64.30;;;;;;5056817;28;20481;-69
2023/09/21 08:16:08;;;;;;;8.95;1.50;;;17.30;64.20;;;;;;5055981;28;20034;-68
2023/09/21 08:18:36;;;;;;;11.48;1.98;;;17.40;63.60;;;;;;5057062;28;20083;-70
2023/09/21 08:21:09;;;;;;;7.53;1.50;;;17.30;64.30;;;;;;5060590;28;20145;-69
2023/09/21 08:23:42;;;;;;;7.18;1.83;;;17.40;64.50;;;;;;5060689;28;20131;-69
2023/09/21 08:26:13;;;;;;;5.95;1.67;;;17.40;63.30;;;;;;5061541;28;20555;-71
2023/09/21 08:28:41;;;;;;;12.05;1.30;;;17.40;63.40;;;;;;5058639;28;20043;-69
2023/09/21 08:31:09;;;;;;;11.70;1.65;;;17.50;63.00;;;;;;5056431;28;20025;-68
2023/09/21 08:33:37;;;;;;;7.72;1.63;;;17.60;62.60;;;;;;5058240;28;20033;-69
2023/09/21 08:36:05;;;;;;;9.85;1.63;;;17.60;62.90;;;;;;5050564;28;20060;-68
2023/09/21 08:38:32;;;;;;;8.90;1.65;;;17.80;62.30;;;;;;5054886;28;20115;-69
2023/09/21 08:41:00;;;;;;;11.02;1.77;;;17.80;62.10;;;;;;5051778;28;20021;-69
2023/09/21 08:43:30;;;;;;;10.90;2.00;;;17.80;62.50;;;;;;5049122;28;20087;-69
2023/09/21 08:45:58;;;;;;;9.40;1.40;;;17.70;62.60;;;;;;5050949;28;20031;-68
2023/09/21 08:48:29;;;;;;;8.82;1.15;;;17.80;62.80;;;;;;5051347;28;20090;-68
2023/09/21 08:50:59;;;;;;;9.82;1.92;;;17.80;62.80;;;;;;5048843;28;20032;-68
2023/09/21 08:53:27;;;;;;;10.63;2.42;;;17.90;62.60;;;;;;5045357;28;20486;-68
2023/09/21 08:55:58;;;;;;;12.55;2.17;;;17.80;62.60;;;;;;5052539;28;20522;-67
2023/09/21 08:58:27;;;;;;;11.40;2.35;;;17.80;62.60;;;;;;5056403;28;20108;-68
2023/09/21 09:00:57;;;;;;;11.15;2.10;;;17.70;62.80;;;;;;5051368;28;20498;-68
2023/09/21 09:03:25;;;;;;;6.05;1.27;;;17.80;62.80;;;;;;5055681;28;20428;-68
2023/09/21 09:06:01;;;;;;;9.18;1.65;;;17.70;63.20;;;;;;5051630;28;20035;-69
2023/09/21 09:08:28;;;;;;;6.78;1.70;;;17.60;63.80;;;;;;5050747;28;20026;-68
2023/09/21 09:10:56;;;;;;;9.30;2.30;;;17.40;64.80;;;;;;5062977;28;20081;-68
2023/09/21 09:13:34;;;;;;;8.13;2.08;;;17.40;65.10;;;;;;5053100;28;20024;-69
2023/09/21 09:16:01;;;;;;;8.48;1.77;;;17.40;64.80;;;;;;5054829;28;20482;-69
2023/09/21 09:18:28;;;;;;;7.18;1.67;;;17.50;64.90;;;;;;5053937;28;20014;-69
2023/09/21 09:20:56;;;;;;;7.03;1.58;;;17.60;65.00;;;;;;5054414;28;20482;-69
2023/09/21 09:23:24;;;;;;;8.38;2.05;;;17.70;64.70;;;;;;5048260;28;20448;-68
2023/09/21 09:25:54;;;;;;;10.50;1.65;;;17.60;64.90;;;;;;5050004;28;20620;-69
2023/09/21 09:28:23;;;;;;;8.35;1.77;;;17.50;65.40;;;;;;5050458;28;20025;-68
2023/09/21 09:30:52;;;;;;;12.35;2.85;;;17.60;65.50;;;;;;5057693;28;20455;-70
2023/09/21 09:33:25;;;;;;;9.90;1.88;;;17.60;65.50;;;;;;5063927;28;20021;-69
2023/09/21 09:35:53;;;;;;;9.32;1.50;;;17.60;65.80;;;;;;5050421;28;20036;-70
2023/09/21 09:38:21;;;;;;;10.27;1.60;;;17.70;66.30;;;;;;5056439;28;20029;-69
2023/09/21 09:40:50;;;;;;;5.72;1.05;;;17.60;66.50;;;;;;5056978;28;20162;-68
2023/09/21 09:43:18;;;;;;;7.28;1.45;;;17.50;67.00;;;;;;5054743;28;20512;-70
2023/09/21 09:45:47;;;;;;;9.65;1.42;;;17.60;67.00;;;;;;5061905;28;20447;-68
2023/09/21 09:48:19;;;;;;;6.50;1.38;;;17.40;67.50;;;;;;5058307;28;20455;-67
2023/09/21 09:50:54;;;;;;;8.95;1.95;;;17.50;67.40;;;;;;5057179;28;20031;-69
2023/09/21 09:53:24;;;;;;;11.35;1.75;;;17.30;68.00;;;;;;5056915;28;20439;-69
2023/09/21 09:55:55;;;;;;;11.65;1.95;;;17.50;67.70;;;;;;5056086;28;20029;-69
2023/09/21 09:58:26;;;;;;;8.40;1.50;;;17.60;67.20;;;;;;5058272;28;20492;-68
2023/09/21 10:00:55;;;;;;;5.57;1.83;;;17.30;67.80;;;;;;5056079;28;20756;-68
2023/09/21 10:03:23;;;;;;;7.32;1.55;;;17.30;68.40;;;;;;5057641;28;20041;-69
2023/09/21 10:05:51;;;;;;;6.35;1.25;;;17.50;67.80;;;;;;5054767;28;20028;-69
2023/09/21 10:08:21;;;;;;;11.57;1.60;;;17.60;67.30;;;;;;5057592;28;20034;-70
2023/09/21 10:10:54;;;;;;;9.38;1.75;;;17.40;67.60;;;;;;5055231;28;20072;-69
2023/09/21 10:13:25;;;;;;;10.48;1.48;;;17.40;67.70;;;;;;5055629;28;20021;-68
2023/09/21 10:16:04;;;;;;;9.73;1.52;;;17.40;67.90;;;;;;5055164;28;20033;-68
2023/09/21 10:18:35;;;;;;;4.32;1.38;;;17.40;68.40;;;;;;5054173;28;20029;-68
2023/09/21 10:21:24;;;;;;;10.68;1.65;;;17.50;68.30;;;;;;5053800;28;20093;-69
2023/09/21 10:24:02;;;;;;;9.63;2.00;;;17.60;67.70;;;;;;5056938;28;20599;-68
2023/09/21 10:26:39;;;;;;;9.25;1.70;;;17.50;67.80;;;;;;5053503;28;20025;-69
2023/09/21 10:29:08;;;;;;;8.10;1.60;;;17.60;68.30;;;;;;5068541;28;20082;-68
2023/09/21 10:31:39;;;;;;;9.13;1.88;;;17.40;68.60;;;;;;5051645;28;20761;-69
2023/09/21 10:34:14;;;;;;;8.40;1.35;;;17.50;68.30;;;;;;5051508;28;20032;-69
2023/09/21 10:36:50;;;;;;;6.53;1.20;;;17.40;68.90;;;;;;5053950;28;20029;-68
2023/09/21 10:39:25;;;;;;;11.15;1.88;;;17.40;68.90;;;;;;5049713;28;20060;-70
2023/09/21 10:42:17;;;;;;;8.52;1.60;;;17.40;69.00;;;;;;5045517;28;20508;-68
2023/09/21 10:45:07;;;;;;;7.43;1.50;;;17.40;68.90;;;;;;5051551;28;20043;-67
2023/09/21 10:47:40;;;;;;;10.82;1.80;;;17.40;69.20;;;;;;5045693;28;20110;-69
2023/09/21 10:50:11;;;;;;;4.40;1.30;;;17.40;69.40;;;;;;5046917;28;20036;-69
2023/09/21 10:52:41;;;;;;;9.15;1.42;;;17.40;70.00;;;;;;5050058;28;20025;-70
2023/09/21 10:55:12;;;;;;;9.20;2.33;;;17.30;70.10;;;;;;5050248;28;20128;-66
2023/09/21 10:57:40;;;;;;;6.47;1.30;;;17.50;69.90;;;;;;5051113;28;20021;-68
2023/09/21 11:00:08;;;;;;;11.75;1.42;;;17.40;70.40;;;;;;5056683;28;20851;-69
2023/09/21 11:02:39;;;;;;;9.57;2.00;;;17.50;69.90;;;;;;5052989;28;20021;-69
2023/09/21 11:05:07;;;;;;;9.45;1.60;;;17.30;70.60;;;;;;5065618;28;20028;-69
2023/09/21 11:07:36;;;;;;;9.65;1.33;;;17.30;70.70;;;;;;5055283;28;20516;-67
2023/09/21 11:10:06;;;;;;;7.00;1.60;;;17.20;71.20;;;;;;5051296;28;20028;-70
2023/09/21 11:12:38;;;;;;;5.72;1.30;;;17.10;71.50;;;;;;5052921;28;20021;-67
2023/09/21 11:15:09;;;;;;;7.45;1.45;;;17.00;71.90;;;;;;5061174;28;20470;-67
2023/09/21 11:17:36;;;;;;;11.07;1.50;;;17.00;71.50;;;;;;5057649;28;20051;-68
2023/09/21 11:20:04;;;;;;;11.18;1.77;;;17.00;73.80;;;;;;5053859;28;20072;-69
2023/09/21 11:22:33;;;;;;;5.78;1.38;;;16.70;78.60;;;;;;5053702;28;20045;-68
2023/09/21 11:25:02;;;;;;;11.90;1.92;;;16.60;80.40;;;;;;5059160;28;20036;-68
2023/09/21 11:27:29;;;;;;;6.55;1.85;;;16.60;80.10;;;;;;5054279;28;20031;-67
2023/09/21 11:29:57;;;;;;;10.07;1.63;;;16.50;80.80;;;;;;5060730;28;20020;-68
2023/09/21 11:32:29;;;;;;;8.02;1.42;;;16.50;81.60;;;;;;5058861;28;20024;-67
2023/09/21 11:35:00;;;;;;;13.40;2.28;;;16.50;82.00;;;;;;5054480;28;20021;-69
2023/09/21 11:37:28;;;;;;;13.25;1.80;;;16.70;80.10;;;;;;5053968;28;20036;-68
2023/09/21 11:39:56;;;;;;;8.05;1.98;;;16.60;79.50;;;;;;5059738;28;20024;-72
2023/09/21 11:42:25;;;;;;;11.95;2.03;;;16.50;80.00;;;;;;5056618;28;20076;-67
2023/09/21 11:44:52;;;;;;;12.55;2.10;;;16.50;79.50;;;;;;5055513;28;20120;-67
2023/09/21 11:47:22;;;;;;;11.90;1.60;;;16.60;79.20;;;;;;5060385;28;20028;-67
2023/09/21 11:49:55;;;;;;;11.38;1.70;;;16.60;78.50;;;;;;5062026;28;20020;-67
2023/09/21 11:52:24;;;;;;;11.68;1.70;;;16.60;78.90;;;;;;5054475;28;20029;-67
2023/09/21 11:54:52;;;;;;;9.38;1.98;;;16.50;79.50;;;;;;5054958;28;20120;-68
2023/09/21 11:57:20;;;;;;;7.65;1.58;;;16.40;79.30;;;;;;5063846;28;20096;-67
2023/09/21 11:59:47;;;;;;;11.88;2.03;;;16.30;80.10;;;;;;5054996;28;20104;-68
2023/09/21 12:02:17;;;;;;;8.02;1.50;;;16.30;79.70;;;;;;5063233;28;20112;-68
2023/09/21 12:04:44;;;;;;;11.25;1.83;;;16.40;79.30;;;;;;5060726;28;20038;-69
2023/09/21 12:07:14;;;;;;;8.43;1.83;;;16.40;78.90;;;;;;5062923;28;20020;-68
2023/09/21 12:09:41;;;;;;;11.18;2.08;;;16.30;79.30;;;;;;5058615;28;20496;-67
2023/09/21 12:12:12;;;;;;;7.65;1.52;;;16.40;78.80;;;;;;5062146;28;20381;-67
2023/09/21 12:14:42;;;;;;;11.20;2.05;;;16.30;78.90;;;;;;5054683;28;20020;-67
2023/09/21 12:17:11;;;;;;;12.93;1.60;;;16.40;79.10;;;;;;5053601;28;20024;-68
2023/09/21 12:19:39;;;;;;;7.43;1.65;;;16.40;78.80;;;;;;5060044;28;20516;-67
2023/09/21 12:22:08;;;;;;;9.32;1.75;;;16.50;78.00;;;;;;5054535;28;20243;-68
2023/09/21 12:24:36;;;;;;;9.93;1.50;;;16.40;78.60;;;;;;5047648;28;20485;-68
2023/09/21 12:27:07;;;;;;;10.20;1.88;;;16.40;78.80;;;;;;5046063;28;20033;-68
2023/09/21 12:29:36;;;;;;;10.30;1.67;;;16.50;77.90;;;;;;5049448;28;20028;-67
2023/09/21 12:32:04;;;;;;;9.80;1.40;;;16.50;78.10;;;;;;5049735;28;20071;-67
2023/09/21 12:34:34;;;;;;;11.23;1.77;;;16.40;77.80;;;;;;5052337;28;20021;-67
2023/09/21 12:37:01;;;;;;;8.93;1.50;;;16.50;77.90;;;;;;5055350;28;20060;-67
2023/09/21 12:39:30;;;;;;;13.15;1.75;;;16.40;77.90;;;;;;5060356;28;20032;-67
2023/09/21 12:41:59;;;;;;;11.82;1.95;;;16.40;77.70;;;;;;5051355;28;20392;-67
2023/09/21 12:44:26;;;;;;;9.25;1.45;;;16.50;77.80;;;;;;5052764;28;20060;-69
2023/09/21 12:46:54;;;;;;;4.97;1.17;;;16.40;77.60;;;;;;5052498;28;20029;-66
2023/09/21 12:49:22;;;;;;;7.45;1.33;;;16.50;78.10;;;;;;5056395;28;20021;-67
2023/09/21 12:51:49;;;;;;;7.20;1.30;;;16.40;78.30;;;;;;5062012;28;20033;-66
2023/09/21 12:54:19;;;;;;;8.90;1.25;;;16.20;79.30;;;;;;5055580;28;20458;-67
2023/09/21 12:56:46;;;;;;;11.13;1.60;;;16.20;80.50;;;;;;5055680;28;20033;-67